createdAt,value
2022-12-11T00:02:12.868Z,74.79
2022-12-11T00:04:39.867Z,74.66
2022-12-11T00:07:06.818Z,74.59
2022-12-11T00:09:33.820Z,75.07
2022-12-11T00:12:02.501Z,74.96
2022-12-11T00:14:29.860Z,75.13
2022-12-11T00:16:56.938Z,75.23
2022-12-11T00:19:24.032Z,75.48
2022-12-11T00:21:50.994Z,74.93
2022-12-11T00:24:17.979Z,75.49
2022-12-11T00:26:45.247Z,75.46
2022-12-11T00:29:14.720Z,75.41
2022-12-11T00:31:42.608Z,75.70
2022-12-11T00:34:09.834Z,75.55
2022-12-11T00:36:36.780Z,75.73
2022-12-11T00:39:04.595Z,75.41
2022-12-11T00:41:32.208Z,75.38
2022-12-11T00:43:59.271Z,75.34
2022-12-11T00:46:26.194Z,75.48
2022-12-11T00:48:53.713Z,75.99
2022-12-11T00:51:21.012Z,75.79
2022-12-11T00:53:48.055Z,75.34
2022-12-11T00:56:18.544Z,75.76
2022-12-11T00:58:46.714Z,75.44
2022-12-11T01:01:17.876Z,75.38
2022-12-11T01:03:44.973Z,75.42
2022-12-11T01:06:21.744Z,75.70
2022-12-11T01:09:09.358Z,75.66
2022-12-11T01:11:36.911Z,75.93
2022-12-11T01:14:04.812Z,75.43
2022-12-11T01:16:31.910Z,75.72
2022-12-11T01:18:58.904Z,76.07
2022-12-11T01:21:25.911Z,75.86
2022-12-11T01:23:53.046Z,75.95
2022-12-11T01:26:20.578Z,75.82
2022-12-11T01:28:50.796Z,75.91
2022-12-11T01:31:19.526Z,75.57
2022-12-11T01:33:46.765Z,75.97
2022-12-11T01:36:19.221Z,76.22
2022-12-11T01:38:47.841Z,76.25
2022-12-11T01:41:15.819Z,76.75
2022-12-11T01:44:16.344Z,76.66
2022-12-11T01:46:43.775Z,76.48
2022-12-11T01:49:13.991Z,76.65
2022-12-11T01:51:48.540Z,76.61
2022-12-11T01:54:17.637Z,76.20
2022-12-11T01:56:48.121Z,76.38
2022-12-11T01:59:19.525Z,76.28
2022-12-11T02:02:01.338Z,75.95
2022-12-11T02:04:29.126Z,76.08
2022-12-11T02:06:56.378Z,76.18
2022-12-11T02:09:30.617Z,76.44
2022-12-11T02:12:31.144Z,76.39
2022-12-11T02:15:35.886Z,76.37
2022-12-11T02:18:24.176Z,76.58
2022-12-11T02:20:55.082Z,76.18
2022-12-11T02:23:32.553Z,76.25
2022-12-11T02:26:14.615Z,76.83
2022-12-11T02:28:56.004Z,76.41
2022-12-11T02:31:25.795Z,76.55
2022-12-11T02:33:59.052Z,76.73
2022-12-11T02:36:29.426Z,76.70
2022-12-11T02:38:59.004Z,76.51
2022-12-11T02:41:27.813Z,76.28
2022-12-11T02:43:57.624Z,76.38
2022-12-11T02:46:25.568Z,76.63
2022-12-11T02:48:54.395Z,76.33
2022-12-11T02:51:34.597Z,76.38
2022-12-11T02:54:03.411Z,76.46
2022-12-11T02:56:40.585Z,76.41
2022-12-11T02:59:11.243Z,76.87
2022-12-11T03:01:38.369Z,76.18
2022-12-11T03:04:05.639Z,76.41
2022-12-11T03:06:37.860Z,76.47
2022-12-11T03:09:06.855Z,76.60
2022-12-11T03:11:33.952Z,76.86
2022-12-11T03:14:05.659Z,76.54
2022-12-11T03:16:36.767Z,76.74
2022-12-11T03:19:29.659Z,76.51
2022-12-11T03:22:16.564Z,76.73
2022-12-11T03:24:50.019Z,76.69
2022-12-11T03:27:19.570Z,76.81
2022-12-11T03:30:00.182Z,76.70
2022-12-11T03:33:04.685Z,76.92
2022-12-11T03:35:54.856Z,77.13
2022-12-11T03:38:27.226Z,76.85
2022-12-11T03:40:59.226Z,76.92
2022-12-11T03:43:28.783Z,77.05
2022-12-11T03:45:57.759Z,76.62
2022-12-11T03:48:28.758Z,77.02
2022-12-11T03:50:56.876Z,76.84
2022-12-11T03:53:26.019Z,76.92
2022-12-11T03:55:54.395Z,77.02
2022-12-11T03:58:21.374Z,76.84
2022-12-11T04:00:48.315Z,76.82
2022-12-11T04:03:16.136Z,76.86
2022-12-11T04:05:48.982Z,77.06
2022-12-11T04:08:17.045Z,77.29
2022-12-11T04:10:44.833Z,76.97
2022-12-11T04:13:12.246Z,77.24
2022-12-11T04:15:40.626Z,77.27
2022-12-11T04:18:26.912Z,77.05
2022-12-11T04:21:13.966Z,77.21
2022-12-11T04:23:59.714Z,77.38
2022-12-11T04:26:26.737Z,77.38
2022-12-11T04:28:53.736Z,77.40
2022-12-11T04:31:22.318Z,77.26
2022-12-11T04:33:49.792Z,77.60
2022-12-11T04:36:17.208Z,77.43
2022-12-11T04:38:44.136Z,77.28
2022-12-11T04:41:13.283Z,77.15
2022-12-11T04:43:41.272Z,77.24
2022-12-11T04:46:17.683Z,77.21
2022-12-11T04:48:45.364Z,77.58
2022-12-11T04:51:12.539Z,77.28
2022-12-11T04:53:39.492Z,77.40
2022-12-11T04:56:07.958Z,77.50
2022-12-11T04:58:38.180Z,76.91
2022-12-11T05:01:10.000Z,77.26
2022-12-11T05:03:37.204Z,77.22
2022-12-11T05:06:04.693Z,77.10
2022-12-11T05:08:31.699Z,77.22
2022-12-11T05:11:01.296Z,77.26
2022-12-11T05:13:29.570Z,77.53
2022-12-11T05:15:57.484Z,77.51
2022-12-11T05:18:25.658Z,77.74
2022-12-11T05:21:05.166Z,77.33
2022-12-11T05:23:32.841Z,77.16
2022-12-11T05:26:02.806Z,77.18
2022-12-11T05:28:31.824Z,77.31
2022-12-11T05:31:12.265Z,77.01
2022-12-11T05:33:39.275Z,77.20
2022-12-11T05:36:08.127Z,77.00
2022-12-11T05:38:35.385Z,76.87
2022-12-11T05:41:06.010Z,77.26
2022-12-11T05:43:35.360Z,77.30
2022-12-11T05:46:13.660Z,77.34
2022-12-11T05:48:41.923Z,77.66
2022-12-11T05:51:09.845Z,77.29
2022-12-11T05:53:41.296Z,77.16
2022-12-11T05:56:20.439Z,76.93
2022-12-11T05:58:48.506Z,77.03
2022-12-11T06:01:24.950Z,76.67
2022-12-11T06:03:53.131Z,77.07
2022-12-11T06:06:20.153Z,76.89
2022-12-11T06:08:50.646Z,77.21
2022-12-11T06:11:23.615Z,77.24
2022-12-11T06:13:51.583Z,76.73
2022-12-11T06:16:19.722Z,76.71
2022-12-11T06:18:47.341Z,77.07
2022-12-11T06:21:22.211Z,76.90
2022-12-11T06:23:51.841Z,77.09
2022-12-11T06:26:19.586Z,76.93
2022-12-11T06:28:47.450Z,77.05
2022-12-11T06:31:15.633Z,77.01
2022-12-11T06:33:42.945Z,76.85
2022-12-11T06:36:12.938Z,76.53
2022-12-11T06:38:39.980Z,76.67
2022-12-11T06:41:08.625Z,76.37
2022-12-11T06:43:37.964Z,76.49
2022-12-11T06:46:12.217Z,76.66
2022-12-11T06:48:39.344Z,76.51
2022-12-11T06:51:14.984Z,76.18
2022-12-11T06:53:42.557Z,76.44
2022-12-11T06:56:15.576Z,76.11
2022-12-11T06:58:44.168Z,76.04
2022-12-11T07:01:26.146Z,76.19
2022-12-11T07:03:54.813Z,75.72
2022-12-11T07:06:22.635Z,76.19
2022-12-11T07:08:49.842Z,76.16
2022-12-11T07:11:18.878Z,76.17
2022-12-11T07:13:46.342Z,75.46
2022-12-11T07:16:14.856Z,75.86
2022-12-11T07:18:46.303Z,75.54
2022-12-11T07:21:14.454Z,75.92
2022-12-11T07:23:42.042Z,75.75
2022-12-11T07:26:11.940Z,76.10
2022-12-11T07:28:39.676Z,75.75
2022-12-11T07:31:12.005Z,75.61
2022-12-11T07:33:39.439Z,75.81
2022-12-11T07:36:08.246Z,75.35
2022-12-11T07:38:35.671Z,75.82
2022-12-11T07:41:04.059Z,75.52
2022-12-11T07:43:32.332Z,75.69
2022-12-11T07:46:07.729Z,75.67
2022-12-11T07:48:41.169Z,75.59
2022-12-11T07:51:19.004Z,75.44
2022-12-11T07:53:48.241Z,75.49
2022-12-11T07:56:16.944Z,75.66
2022-12-11T07:58:44.234Z,75.18
2022-12-11T08:01:30.876Z,75.08
2022-12-11T08:03:58.181Z,74.82
2022-12-11T08:06:28.087Z,75.05
2022-12-11T08:08:56.529Z,75.36
2022-12-11T08:11:23.832Z,75.55
2022-12-11T08:13:50.970Z,74.98
2022-12-11T08:16:19.541Z,75.11
2022-12-11T08:18:47.914Z,74.80
2022-12-11T08:21:18.152Z,75.05
2022-12-11T08:23:45.683Z,74.98
2022-12-11T08:26:20.136Z,75.14
2022-12-11T08:28:47.146Z,74.90
2022-12-11T08:31:16.378Z,74.77
2022-12-11T08:33:44.578Z,74.51
2022-12-11T08:36:14.084Z,74.34
2022-12-11T08:38:41.536Z,74.32
2022-12-11T08:41:14.207Z,74.02
2022-12-11T08:43:41.837Z,74.13
2022-12-11T08:46:09.882Z,73.85
2022-12-11T08:48:42.066Z,74.08
2022-12-11T08:51:14.016Z,74.16
2022-12-11T08:53:41.438Z,73.84
2022-12-11T08:56:11.487Z,73.83
2022-12-11T08:58:39.310Z,73.61
2022-12-11T09:01:11.694Z,73.19
2022-12-11T09:03:40.105Z,73.71
2022-12-11T09:06:09.061Z,73.66
2022-12-11T09:08:36.646Z,73.63
2022-12-11T09:11:12.392Z,73.23
2022-12-11T09:13:39.936Z,73.54
2022-12-11T09:16:09.738Z,73.69
2022-12-11T09:18:37.815Z,73.25
2022-12-11T09:21:16.584Z,73.36
2022-12-11T09:23:43.843Z,73.12
2022-12-11T09:26:14.018Z,73.29
2022-12-11T09:28:46.265Z,73.34
2022-12-11T09:31:17.612Z,73.50
2022-12-11T09:33:45.443Z,73.37
2022-12-11T09:36:13.216Z,72.97
2022-12-11T09:38:40.274Z,73.04
2022-12-11T09:41:23.286Z,72.97
2022-12-11T09:44:02.243Z,73.26
2022-12-11T09:46:33.925Z,73.54
2022-12-11T09:49:04.876Z,73.17
2022-12-11T09:51:40.559Z,73.66
2022-12-11T09:54:09.692Z,73.59
2022-12-11T09:56:42.723Z,73.45
2022-12-11T09:59:39.355Z,73.32
2022-12-11T10:02:18.659Z,73.38
2022-12-11T10:04:51.458Z,73.40
2022-12-11T10:07:47.987Z,73.28
2022-12-11T10:10:41.264Z,73.00
2022-12-11T10:13:45.602Z,72.69
2022-12-11T10:16:33.945Z,73.55
2022-12-11T10:19:01.086Z,73.07
2022-12-11T10:21:36.768Z,72.90
2022-12-11T10:24:11.347Z,73.42
2022-12-11T10:26:39.947Z,73.47
2022-12-11T10:29:14.790Z,72.89
2022-12-11T10:31:51.891Z,73.14
2022-12-11T10:34:24.159Z,72.82
2022-12-11T10:36:52.816Z,73.12
2022-12-11T10:39:23.383Z,72.92
2022-12-11T10:41:52.493Z,72.97
2022-12-11T10:44:20.844Z,73.21
2022-12-11T10:47:00.717Z,73.18
2022-12-11T10:49:30.388Z,73.01
2022-12-11T10:52:01.551Z,73.05
2022-12-11T10:54:36.884Z,73.13
2022-12-11T10:57:05.693Z,73.38
2022-12-11T10:59:46.822Z,73.31
2022-12-11T11:02:34.256Z,73.10
2022-12-11T11:05:12.710Z,73.26
2022-12-11T11:07:39.943Z,73.33
2022-12-11T11:10:13.754Z,73.20
2022-12-11T11:12:46.423Z,73.44
2022-12-11T11:15:28.411Z,73.08
2022-12-11T11:17:58.068Z,73.07
2022-12-11T11:20:29.311Z,73.43
2022-12-11T11:22:59.756Z,73.17
2022-12-11T11:25:29.303Z,72.80
2022-12-11T11:28:00.322Z,73.14
2022-12-11T11:30:37.169Z,72.85
2022-12-11T11:33:12.508Z,72.64
2022-12-11T11:35:45.528Z,73.21
2022-12-11T11:38:23.528Z,73.01
2022-12-11T11:41:05.568Z,73.10
2022-12-11T11:43:42.727Z,72.69
2022-12-11T11:46:36.777Z,72.75
2022-12-11T11:49:12.941Z,73.11
2022-12-11T11:51:51.655Z,72.73
2022-12-11T11:54:35.689Z,72.87
2022-12-11T11:57:14.039Z,72.96
2022-12-11T11:59:49.342Z,73.16
2022-12-11T12:02:18.622Z,72.94
2022-12-11T12:04:51.344Z,72.60
2022-12-11T12:07:41.322Z,72.96
2022-12-11T12:10:26.641Z,73.07
2022-12-11T12:13:49.895Z,73.18
2022-12-11T12:16:52.739Z,72.95
2022-12-11T12:19:34.781Z,73.22
2022-12-11T12:22:20.168Z,73.06
2022-12-11T12:25:02.918Z,73.06
2022-12-11T12:27:59.884Z,73.16
2022-12-11T12:30:37.730Z,73.28
2022-12-11T12:33:18.156Z,73.27
2022-12-11T12:35:56.196Z,72.88
2022-12-11T12:38:34.957Z,73.19
2022-12-11T12:41:15.776Z,73.25
2022-12-11T12:43:42.897Z,73.42
2022-12-11T12:46:34.666Z,73.02
2022-12-11T12:49:03.954Z,73.20
2022-12-11T12:51:31.537Z,73.22
2022-12-11T12:54:05.600Z,73.56
2022-12-11T12:56:38.283Z,73.42
2022-12-11T12:59:18.344Z,73.38
2022-12-11T13:01:52.396Z,73.08
2022-12-11T13:04:58.488Z,73.35
2022-12-11T13:07:32.379Z,73.11
2022-12-11T13:10:27.885Z,73.07
2022-12-11T13:12:55.111Z,73.00
2022-12-11T13:15:31.363Z,72.93
2022-12-11T13:17:59.605Z,73.24
2022-12-11T13:20:30.669Z,73.27
2022-12-11T13:23:06.849Z,73.12
2022-12-11T13:25:50.743Z,73.07
2022-12-11T13:28:25.467Z,72.87
2022-12-11T13:31:07.530Z,72.56
2022-12-11T13:33:41.941Z,72.89
2022-12-11T13:36:15.800Z,72.68
2022-12-11T13:39:01.270Z,72.95
2022-12-11T13:41:30.220Z,72.90
2022-12-11T13:43:58.081Z,73.20
2022-12-11T13:46:32.107Z,72.83
2022-12-11T13:49:05.064Z,72.65
2022-12-11T13:51:36.198Z,73.33
2022-12-11T13:54:17.065Z,72.92
2022-12-11T13:57:03.638Z,73.37
2022-12-11T13:59:36.564Z,73.25
2022-12-11T14:02:19.587Z,72.93
2022-12-11T14:04:49.507Z,72.77
2022-12-11T14:07:24.006Z,72.80
2022-12-11T14:09:51.349Z,72.57
2022-12-11T14:12:21.817Z,73.15
2022-12-11T14:14:53.015Z,72.62
2022-12-11T14:17:28.120Z,72.90
2022-12-11T14:19:58.169Z,72.98
2022-12-11T14:22:28.214Z,73.03
2022-12-11T14:24:57.943Z,72.99
2022-12-11T14:27:26.732Z,73.26
2022-12-11T14:29:53.954Z,73.23
2022-12-11T14:32:30.415Z,73.18
2022-12-11T14:34:58.669Z,73.08
2022-12-11T14:37:28.649Z,72.76
2022-12-11T14:40:03.154Z,73.37
2022-12-11T14:42:43.614Z,73.02
2022-12-11T14:45:45.309Z,72.73
2022-12-11T14:48:27.282Z,73.13
2022-12-11T14:51:01.727Z,72.53
2022-12-11T14:53:49.316Z,72.86
2022-12-11T14:56:21.519Z,72.46
2022-12-11T14:59:06.595Z,72.29
2022-12-11T15:01:35.611Z,72.45
2022-12-11T15:04:24.682Z,72.53
2022-12-11T15:06:52.582Z,72.52
2022-12-11T15:09:27.243Z,72.42
2022-12-11T15:11:57.231Z,72.60
2022-12-11T15:14:25.903Z,72.57
2022-12-11T15:16:56.282Z,72.31
2022-12-11T15:19:33.196Z,72.57
2022-12-11T15:22:09.934Z,72.36
2022-12-11T15:24:40.193Z,72.58
2022-12-11T15:27:24.346Z,72.49
2022-12-11T15:29:51.610Z,72.50
2022-12-11T15:32:20.610Z,71.81
2022-12-11T15:34:50.886Z,72.24
2022-12-11T15:37:23.886Z,72.64
2022-12-11T15:39:51.567Z,72.59
2022-12-11T15:42:29.587Z,72.47
2022-12-11T15:44:57.155Z,72.24
2022-12-11T15:47:27.741Z,72.23
2022-12-11T15:49:58.819Z,72.22
2022-12-11T15:52:25.859Z,72.75
2022-12-11T15:54:52.891Z,73.12
2022-12-11T15:57:23.062Z,72.65
2022-12-11T15:59:52.635Z,72.56
2022-12-11T16:02:19.776Z,72.85
2022-12-11T16:04:46.798Z,72.72
2022-12-11T16:07:18.722Z,72.92
2022-12-11T16:09:47.187Z,72.46
2022-12-11T16:12:14.751Z,72.89
2022-12-11T16:14:42.979Z,72.93
2022-12-11T16:17:14.516Z,72.78
2022-12-11T16:19:43.203Z,72.86
2022-12-11T16:22:11.727Z,72.76
2022-12-11T16:24:39.399Z,72.79
2022-12-11T16:27:07.887Z,72.69
2022-12-11T16:29:40.334Z,72.76
2022-12-11T16:32:08.425Z,72.58
2022-12-11T16:34:37.451Z,72.61
2022-12-11T16:37:06.261Z,72.82
2022-12-11T16:39:33.879Z,72.91
2022-12-11T16:42:00.877Z,72.77
2022-12-11T16:44:27.878Z,72.78
2022-12-11T16:46:55.430Z,72.55
2022-12-11T16:49:22.718Z,72.48
2022-12-11T16:51:50.098Z,73.06
2022-12-11T16:54:18.212Z,73.13
2022-12-11T16:56:45.829Z,73.02
2022-12-11T16:59:13.085Z,73.41
2022-12-11T17:01:40.646Z,73.03
2022-12-11T17:04:20.925Z,73.17
2022-12-11T17:06:50.998Z,73.11
2022-12-11T17:09:19.066Z,73.22
2022-12-11T17:11:45.994Z,73.36
2022-12-11T17:14:13.070Z,73.23
2022-12-11T17:16:40.020Z,73.67
2022-12-11T17:19:07.505Z,73.42
2022-12-11T17:21:34.451Z,73.85
2022-12-11T17:24:05.256Z,73.64
2022-12-11T17:26:32.405Z,73.52
2022-12-11T17:28:59.552Z,73.88
2022-12-11T17:31:26.882Z,73.76
2022-12-11T17:33:54.250Z,74.42
2022-12-11T17:36:22.333Z,74.69
2022-12-11T17:38:52.443Z,74.21
2022-12-11T17:41:21.356Z,74.51
2022-12-11T17:43:53.123Z,74.46
2022-12-11T17:46:20.831Z,74.42
2022-12-11T17:48:48.944Z,74.69
2022-12-11T17:51:22.061Z,74.24
2022-12-11T17:53:49.101Z,73.86
2022-12-11T17:56:16.750Z,73.88
2022-12-11T17:58:44.434Z,73.92
2022-12-11T18:01:13.289Z,74.07
2022-12-11T18:03:41.194Z,74.22
2022-12-11T18:06:13.846Z,74.72
2022-12-11T18:08:41.657Z,74.31
2022-12-11T18:11:15.372Z,74.71
2022-12-11T18:13:44.464Z,74.38
2022-12-11T18:16:33.186Z,75.24
2022-12-11T18:19:00.915Z,74.70
2022-12-11T18:21:32.068Z,75.04
2022-12-11T18:24:00.129Z,75.29
2022-12-11T18:26:28.146Z,74.78
2022-12-11T18:28:55.415Z,75.80
2022-12-11T18:31:22.954Z,75.47
2022-12-11T18:33:50.306Z,75.13
2022-12-11T18:36:19.558Z,75.23
2022-12-11T18:38:48.014Z,75.10
2022-12-11T18:41:16.416Z,75.36
2022-12-11T18:43:43.655Z,75.39
2022-12-11T18:46:14.455Z,75.27
2022-12-11T18:48:42.796Z,75.09
2022-12-11T18:51:12.914Z,75.27
2022-12-11T18:53:40.865Z,75.30
2022-12-11T18:56:15.099Z,74.96
2022-12-11T18:58:42.451Z,75.40
2022-12-11T19:01:17.997Z,75.79
2022-12-11T19:03:45.336Z,75.48
2022-12-11T19:06:14.902Z,75.36
2022-12-11T19:08:42.094Z,75.75
2022-12-11T19:11:09.948Z,75.59
2022-12-11T19:13:36.982Z,75.94
2022-12-11T19:16:04.240Z,75.95
2022-12-11T19:18:31.333Z,75.80
2022-12-11T19:21:06.740Z,75.45
2022-12-11T19:23:36.588Z,75.84
2022-12-11T19:26:04.025Z,76.29
2022-12-11T19:28:31.183Z,76.35
2022-12-11T19:30:58.208Z,76.04
2022-12-11T19:33:25.307Z,76.49
2022-12-11T19:36:01.789Z,76.57
2022-12-11T19:38:28.841Z,76.42
2022-12-11T19:40:56.266Z,76.10
2022-12-11T19:43:23.355Z,76.09
2022-12-11T19:45:50.466Z,76.36
2022-12-11T19:48:17.481Z,76.34
2022-12-11T19:50:44.517Z,76.49
2022-12-11T19:53:11.482Z,76.16
2022-12-11T19:55:38.562Z,76.90
2022-12-11T19:58:05.622Z,77.06
2022-12-11T20:00:32.987Z,76.89
2022-12-11T20:03:00.019Z,77.15
2022-12-11T20:05:27.146Z,76.77
2022-12-11T20:07:54.225Z,77.74
2022-12-11T20:10:21.169Z,77.69
2022-12-11T20:12:48.115Z,77.60
2022-12-11T20:15:16.768Z,77.07
2022-12-11T20:17:45.014Z,76.94
2022-12-11T20:20:12.130Z,76.51
2022-12-11T20:22:40.295Z,76.63
2022-12-11T20:25:07.644Z,77.04
2022-12-11T20:27:34.830Z,77.91
2022-12-11T20:30:01.912Z,77.99
2022-12-11T20:32:30.734Z,77.02
2022-12-11T20:34:58.403Z,76.43
2022-12-11T20:37:26.121Z,76.82
2022-12-11T20:39:53.264Z,77.55
2022-12-11T20:42:20.239Z,77.30
2022-12-11T20:44:49.133Z,77.67
2022-12-11T20:47:19.857Z,77.11
2022-12-11T20:49:49.541Z,77.26
2022-12-11T20:52:17.700Z,77.63
2022-12-11T20:54:45.052Z,77.25
2022-12-11T20:57:13.940Z,76.92
2022-12-11T20:59:40.998Z,77.98
2022-12-11T21:02:09.308Z,78.08
2022-12-11T21:04:41.378Z,78.12
2022-12-11T21:07:09.374Z,78.23
2022-12-11T21:09:37.196Z,78.38
2022-12-11T21:12:06.051Z,78.84
2022-12-11T21:14:33.154Z,78.65
2022-12-11T21:17:00.861Z,78.60
2022-12-11T21:19:28.176Z,77.82
2022-12-11T21:21:55.119Z,78.20
2022-12-11T21:24:26.632Z,78.51
2022-12-11T21:26:56.389Z,79.40
2022-12-11T21:29:25.195Z,79.56
2022-12-11T21:31:52.665Z,79.21
2022-12-11T21:34:25.008Z,78.95
2022-12-11T21:36:56.755Z,78.52
2022-12-11T21:39:25.763Z,79.03
2022-12-11T21:41:53.036Z,79.09
2022-12-11T21:47:06.998Z,79.45
2022-12-11T21:49:33.957Z,78.75
2022-12-11T21:52:01.017Z,79.03
2022-12-11T21:54:28.766Z,78.33
2022-12-11T21:56:55.808Z,78.46
2022-12-11T21:59:22.764Z,79.17
2022-12-11T22:01:49.736Z,79.45
2022-12-11T22:04:17.070Z,81.11
2022-12-11T22:06:47.111Z,81.09
2022-12-11T22:09:16.424Z,81.27
2022-12-11T22:11:45.206Z,81.65
2022-12-11T22:14:13.954Z,82.05
2022-12-11T22:16:41.588Z,81.91
2022-12-11T22:19:08.815Z,81.32
2022-12-11T22:21:36.116Z,81.44
2022-12-11T22:24:03.534Z,81.05
2022-12-11T22:26:30.739Z,80.36
2022-12-11T22:28:58.631Z,80.93
2022-12-11T22:31:27.294Z,79.94
2022-12-11T22:33:55.093Z,81.67
2022-12-11T22:36:27.037Z,82.00
2022-12-11T22:38:54.627Z,81.64
2022-12-11T22:41:27.735Z,80.72
2022-12-11T22:43:56.242Z,80.41
2022-12-11T22:46:27.899Z,79.68
2022-12-11T22:48:55.204Z,80.15
2022-12-11T22:51:23.027Z,79.55
2022-12-11T22:53:50.795Z,80.63
2022-12-11T22:56:18.013Z,79.68
2022-12-11T22:58:45.033Z,81.02
2022-12-11T23:01:16.370Z,82.72
2022-12-11T23:03:43.339Z,81.90
2022-12-11T23:06:12.895Z,81.55
2022-12-11T23:08:41.544Z,81.22
2022-12-11T23:11:20.385Z,80.25
2022-12-11T23:13:47.627Z,80.61
2022-12-11T23:16:14.620Z,80.44
2022-12-11T23:18:41.722Z,79.57
2022-12-11T23:21:09.912Z,79.79
2022-12-11T23:23:36.915Z,80.11
2022-12-11T23:26:05.186Z,79.82
2022-12-11T23:28:32.267Z,79.50
2022-12-11T23:30:59.270Z,79.04
2022-12-11T23:33:26.339Z,79.57
2022-12-11T23:35:53.282Z,79.12
2022-12-11T23:38:20.346Z,79.23
2022-12-11T23:40:47.403Z,80.05
2022-12-11T23:43:14.418Z,80.03
2022-12-11T23:45:44.715Z,80.09
2022-12-11T23:48:13.144Z,79.74
2022-12-11T23:50:41.475Z,79.97
2022-12-11T23:53:09.380Z,80.30
2022-12-11T23:55:39.323Z,79.39
2022-12-11T23:58:06.407Z,79.72
